sensor_id;sensor_type;location;lat;lon;timestamp;P1;durP1;ratioP1;P2;durP2;ratioP2
77705;SDS011;66874;45.274;5.880;2023-03-31T02:00:16;21.98;;;6.90;;
77705;SDS011;66874;45.274;5.880;2023-03-31T02:02:49;29.80;;;8.23;;
77705;SDS011;66874;45.274;5.880;2023-03-31T02:05:26;29.55;;;9.13;;
77705;SDS011;66874;45.274;5.880;2023-03-31T02:07:58;75.75;;;14.00;;
77705;SDS011;66874;45.274;5.880;2023-03-31T02:10:37;60.15;;;12.43;;
77705;SDS011;66874;45.274;5.880;2023-03-31T02:13:05;57.60;;;11.15;;
77705;SDS011;66874;45.274;5.880;2023-03-31T02:15:36;31.40;;;9.88;;
77705;SDS011;66874;45.274;5.880;2023-03-31T02:18:06;34.42;;;9.43;;
77705;SDS011;66874;45.274;5.880;2023-03-31T02:20:36;45.45;;;9.98;;
77705;SDS011;66874;45.274;5.880;2023-03-31T02:23:06;39.45;;;8.15;;
77705;SDS011;66874;45.274;5.880;2023-03-31T02:25:40;25.48;;;7.65;;
77705;SDS011;66874;45.274;5.880;2023-03-31T02:28:11;23.10;;;7.65;;
77705;SDS011;66874;45.274;5.880;2023-03-31T05:31:20;13.50;;;6.65;;
77705;SDS011;66874;45.274;5.880;2023-03-31T05:33:45;11.48;;;6.30;;
77705;SDS011;66874;45.274;5.880;2023-03-31T05:36:12;15.05;;;5.97;;
77705;SDS011;66874;45.274;5.880;2023-03-31T05:38:39;14.18;;;6.65;;
77705;SDS011;66874;45.274;5.880;2023-03-31T05:41:05;17.25;;;6.82;;
77705;SDS011;66874;45.274;5.880;2023-03-31T05:43:33;16.20;;;5.97;;
77705;SDS011;66874;45.274;5.880;2023-03-31T05:45:59;14.35;;;6.45;;
77705;SDS011;66874;45.274;5.880;2023-03-31T05:48:24;16.58;;;6.75;;
77705;SDS011;66874;45.274;5.880;2023-03-31T05:50:50;16.13;;;6.80;;
77705;SDS011;66874;45.274;5.880;2023-03-31T05:53:15;14.43;;;7.15;;
77705;SDS011;66874;45.274;5.880;2023-03-31T05:55:40;13.40;;;6.45;;
77705;SDS011;66874;45.274;5.880;2023-03-31T05:58:06;19.77;;;6.40;;
77705;SDS011;66874;45.274;5.880;2023-03-31T06:00:32;20.67;;;7.30;;
77705;SDS011;66874;45.274;5.880;2023-03-31T06:03:00;27.15;;;7.85;;
77705;SDS011;66874;45.274;5.880;2023-03-31T06:05:25;17.20;;;6.15;;
77705;SDS011;66874;45.274;5.880;2023-03-31T06:07:51;17.33;;;6.88;;
77705;SDS011;66874;45.274;5.880;2023-03-31T06:10:18;11.70;;;6.43;;
77705;SDS011;66874;45.274;5.880;2023-03-31T06:12:44;19.70;;;6.63;;
77705;SDS011;66874;45.274;5.880;2023-03-31T06:15:10;19.65;;;7.68;;
77705;SDS011;66874;45.274;5.880;2023-03-31T06:17:35;19.85;;;7.10;;
77705;SDS011;66874;45.274;5.880;2023-03-31T06:20:01;22.75;;;7.63;;
77705;SDS011;66874;45.274;5.880;2023-03-31T06:22:26;18.90;;;8.13;;
77705;SDS011;66874;45.274;5.880;2023-03-31T06:24:52;20.02;;;8.48;;
77705;SDS011;66874;45.274;5.880;2023-03-31T06:27:17;18.60;;;8.13;;
77705;SDS011;66874;45.274;5.880;2023-03-31T06:29:42;18.40;;;7.18;;
77705;SDS011;66874;45.274;5.880;2023-03-31T06:32:08;15.35;;;7.35;;
77705;SDS011;66874;45.274;5.880;2023-03-31T06:34:33;14.85;;;7.00;;
77705;SDS011;66874;45.274;5.880;2023-03-31T06:36:59;15.55;;;7.38;;
77705;SDS011;66874;45.274;5.880;2023-03-31T06:39:24;14.50;;;6.75;;
77705;SDS011;66874;45.274;5.880;2023-03-31T06:41:50;19.27;;;6.63;;
77705;SDS011;66874;45.274;5.880;2023-03-31T06:44:15;17.52;;;7.05;;
77705;SDS011;66874;45.274;5.880;2023-03-31T06:46:41;18.55;;;7.88;;
77705;SDS011;66874;45.274;5.880;2023-03-31T06:49:07;19.40;;;8.20;;
77705;SDS011;66874;45.274;5.880;2023-03-31T06:51:32;19.13;;;7.35;;
77705;SDS011;66874;45.274;5.880;2023-03-31T06:53:58;20.88;;;7.63;;
77705;SDS011;66874;45.274;5.880;2023-03-31T06:56:23;14.00;;;7.00;;
77705;SDS011;66874;45.274;5.880;2023-03-31T06:58:49;16.80;;;7.40;;
77705;SDS011;66874;45.274;5.880;2023-03-31T07:01:14;14.82;;;7.82;;
77705;SDS011;66874;45.274;5.880;2023-03-31T07:03:40;17.67;;;8.30;;
77705;SDS011;66874;45.274;5.880;2023-03-31T07:06:05;14.48;;;7.05;;
77705;SDS011;66874;45.274;5.880;2023-03-31T07:08:31;17.27;;;8.07;;
77705;SDS011;66874;45.274;5.880;2023-03-31T07:10:57;20.73;;;8.93;;
77705;SDS011;66874;45.274;5.880;2023-03-31T07:13:24;13.32;;;7.00;;
77705;SDS011;66874;45.274;5.880;2023-03-31T07:15:50;20.95;;;7.57;;
77705;SDS011;66874;45.274;5.880;2023-03-31T07:18:16;17.63;;;7.95;;
77705;SDS011;66874;45.274;5.880;2023-03-31T07:20:43;21.30;;;8.13;;
77705;SDS011;66874;45.274;5.880;2023-03-31T07:23:11;21.42;;;8.18;;
77705;SDS011;66874;45.274;5.880;2023-03-31T07:25:36;16.67;;;7.82;;
77705;SDS011;66874;45.274;5.880;2023-03-31T07:28:02;15.82;;;7.93;;
77705;SDS011;66874;45.274;5.880;2023-03-31T07:30:29;22.60;;;8.30;;
77705;SDS011;66874;45.274;5.880;2023-03-31T07:32:54;16.10;;;7.40;;
77705;SDS011;66874;45.274;5.880;2023-03-31T07:35:20;19.60;;;8.80;;
77705;SDS011;66874;45.274;5.880;2023-03-31T07:37:47;18.27;;;7.78;;
77705;SDS011;66874;45.274;5.880;2023-03-31T07:40:14;20.50;;;8.70;;
77705;SDS011;66874;45.274;5.880;2023-03-31T07:42:48;25.42;;;8.15;;
77705;SDS011;66874;45.274;5.880;2023-03-31T07:45:15;18.17;;;7.80;;
77705;SDS011;66874;45.274;5.880;2023-03-31T07:47:42;14.95;;;7.13;;
77705;SDS011;66874;45.274;5.880;2023-03-31T07:50:08;16.50;;;7.63;;
77705;SDS011;66874;45.274;5.880;2023-03-31T07:52:34;16.05;;;7.30;;
77705;SDS011;66874;45.274;5.880;2023-03-31T07:55:00;16.70;;;7.28;;
77705;SDS011;66874;45.274;5.880;2023-03-31T07:57:25;14.45;;;7.65;;
77705;SDS011;66874;45.274;5.880;2023-03-31T07:59:50;18.48;;;7.55;;
77705;SDS011;66874;45.274;5.880;2023-03-31T08:02:16;23.13;;;7.97;;
77705;SDS011;66874;45.274;5.880;2023-03-31T08:04:42;12.70;;;7.88;;
77705;SDS011;66874;45.274;5.880;2023-03-31T08:07:10;16.15;;;7.32;;
77705;SDS011;66874;45.274;5.880;2023-03-31T08:12:02;18.73;;;7.55;;
77705;SDS011;66874;45.274;5.880;2023-03-31T08:14:28;18.67;;;7.72;;
77705;SDS011;66874;45.274;5.880;2023-03-31T08:16:54;17.95;;;8.00;;
77705;SDS011;66874;45.274;5.880;2023-03-31T08:19:19;16.48;;;9.50;;
77705;SDS011;66874;45.274;5.880;2023-03-31T08:21:46;17.85;;;8.88;;
77705;SDS011;66874;45.274;5.880;2023-03-31T08:24:11;18.88;;;8.15;;
77705;SDS011;66874;45.274;5.880;2023-03-31T08:26:37;14.00;;;7.90;;
77705;SDS011;66874;45.274;5.880;2023-03-31T08:29:02;16.23;;;7.50;;
77705;SDS011;66874;45.274;5.880;2023-03-31T08:31:28;20.90;;;8.88;;
77705;SDS011;66874;45.274;5.880;2023-03-31T08:33:54;21.75;;;10.35;;
77705;SDS011;66874;45.274;5.880;2023-03-31T08:36:20;19.98;;;9.88;;
77705;SDS011;66874;45.274;5.880;2023-03-31T08:38:46;17.13;;;8.55;;
77705;SDS011;66874;45.274;5.880;2023-03-31T08:42:00;22.77;;;9.18;;
77705;SDS011;66874;45.274;5.880;2023-03-31T08:44:19;21.95;;;10.38;;
77705;SDS011;66874;45.274;5.880;2023-03-31T08:46:50;19.10;;;9.70;;
77705;SDS011;66874;45.274;5.880;2023-03-31T08:49:17;17.30;;;8.38;;
77705;SDS011;66874;45.274;5.880;2023-03-31T08:51:49;15.10;;;8.85;;
77705;SDS011;66874;45.274;5.880;2023-03-31T08:54:20;17.33;;;9.20;;
77705;SDS011;66874;45.274;5.880;2023-03-31T09:10:37;18.88;;;7.68;;
77705;SDS011;66874;45.274;5.880;2023-03-31T09:18:28;20.30;;;7.85;;
77705;SDS011;66874;45.274;5.880;2023-03-31T09:23:47;16.23;;;8.20;;
77705;SDS011;66874;45.274;5.880;2023-03-31T09:29:18;16.95;;;8.45;;
77705;SDS011;66874;45.274;5.880;2023-03-31T09:31:48;17.15;;;8.40;;
77705;SDS011;66874;45.274;5.880;2023-03-31T09:34:24;18.10;;;8.95;;
77705;SDS011;66874;45.274;5.880;2023-03-31T09:36:53;18.98;;;9.15;;
77705;SDS011;66874;45.274;5.880;2023-03-31T09:39:19;17.88;;;7.45;;
77705;SDS011;66874;45.274;5.880;2023-03-31T09:41:45;19.00;;;7.60;;
77705;SDS011;66874;45.274;5.880;2023-03-31T09:44:18;20.92;;;7.57;;
77705;SDS011;66874;45.274;5.880;2023-03-31T09:46:56;12.10;;;7.05;;
77705;SDS011;66874;45.274;5.880;2023-03-31T09:49:26;17.58;;;8.75;;
77705;SDS011;66874;45.274;5.880;2023-03-31T09:52:00;17.27;;;9.18;;
77705;SDS011;66874;45.274;5.880;2023-03-31T09:57:15;16.55;;;8.10;;
77705;SDS011;66874;45.274;5.880;2023-03-31T09:59:49;17.58;;;8.30;;
77705;SDS011;66874;45.274;5.880;2023-03-31T10:05:02;18.67;;;8.38;;
77705;SDS011;66874;45.274;5.880;2023-03-31T10:09:54;23.65;;;6.80;;
77705;SDS011;66874;45.274;5.880;2023-03-31T10:12:22;18.45;;;9.23;;
77705;SDS011;66874;45.274;5.880;2023-03-31T10:14:52;22.17;;;9.23;;
77705;SDS011;66874;45.274;5.880;2023-03-31T10:17:23;15.82;;;9.02;;
77705;SDS011;66874;45.274;5.880;2023-03-31T10:19:52;22.77;;;9.57;;
77705;SDS011;66874;45.274;5.880;2023-03-31T10:24:46;28.20;;;12.30;;
77705;SDS011;66874;45.274;5.880;2023-03-31T10:27:16;21.05;;;10.52;;
77705;SDS011;66874;45.274;5.880;2023-03-31T10:29:46;21.00;;;10.15;;
77705;SDS011;66874;45.274;5.880;2023-03-31T10:32:17;14.90;;;8.95;;
77705;SDS011;66874;45.274;5.880;2023-03-31T10:34:56;19.42;;;9.35;;
77705;SDS011;66874;45.274;5.880;2023-03-31T10:37:26;24.65;;;10.30;;
77705;SDS011;66874;45.274;5.880;2023-03-31T10:39:56;18.20;;;9.20;;
77705;SDS011;66874;45.274;5.880;2023-03-31T10:42:24;16.73;;;9.43;;
77705;SDS011;66874;45.274;5.880;2023-03-31T10:47:36;19.25;;;9.48;;
77705;SDS011;66874;45.274;5.880;2023-03-31T10:50:08;16.30;;;9.60;;
77705;SDS011;66874;45.274;5.880;2023-03-31T10:52:45;17.52;;;9.23;;
77705;SDS011;66874;45.274;5.880;2023-03-31T10:55:32;17.30;;;8.77;;
77705;SDS011;66874;45.274;5.880;2023-03-31T11:01:00;17.23;;;8.18;;
77705;SDS011;66874;45.274;5.880;2023-03-31T11:03:48;17.88;;;10.13;;
77705;SDS011;66874;45.274;5.880;2023-03-31T11:06:45;16.77;;;9.48;;
77705;SDS011;66874;45.274;5.880;2023-03-31T11:12:22;18.70;;;9.03;;
77705;SDS011;66874;45.274;5.880;2023-03-31T11:14:53;12.98;;;7.68;;
77705;SDS011;66874;45.274;5.880;2023-03-31T11:17:33;19.85;;;7.82;;
77705;SDS011;66874;45.274;5.880;2023-03-31T11:22:35;12.23;;;6.85;;
77705;SDS011;66874;45.274;5.880;2023-03-31T11:25:17;15.30;;;8.00;;
77705;SDS011;66874;45.274;5.880;2023-03-31T11:44:13;10.60;;;5.80;;
77705;SDS011;66874;45.274;5.880;2023-03-31T11:46:47;9.48;;;5.75;;
77705;SDS011;66874;45.274;5.880;2023-03-31T11:49:22;7.72;;;5.22;;
77705;SDS011;66874;45.274;5.880;2023-03-31T11:51:53;9.40;;;5.55;;
77705;SDS011;66874;45.274;5.880;2023-03-31T12:00:31;9.93;;;5.28;;
77705;SDS011;66874;45.274;5.880;2023-03-31T12:03:18;10.35;;;5.45;;
77705;SDS011;66874;45.274;5.880;2023-03-31T12:05:47;9.02;;;5.63;;
77705;SDS011;66874;45.274;5.880;2023-03-31T12:08:25;11.68;;;5.50;;
77705;SDS011;66874;45.274;5.880;2023-03-31T12:11:08;9.70;;;5.82;;
77705;SDS011;66874;45.274;5.880;2023-03-31T12:13:50;8.30;;;5.63;;
77705;SDS011;66874;45.274;5.880;2023-03-31T12:16:24;11.70;;;5.63;;
77705;SDS011;66874;45.274;5.880;2023-03-31T12:21:46;9.48;;;5.88;;
77705;SDS011;66874;45.274;5.880;2023-03-31T12:24:16;6.82;;;4.95;;
77705;SDS011;66874;45.274;5.880;2023-03-31T12:29:34;11.57;;;4.70;;
77705;SDS011;66874;45.274;5.880;2023-03-31T12:32:02;6.43;;;4.43;;
77705;SDS011;66874;45.274;5.880;2023-03-31T12:34:30;7.53;;;3.85;;
77705;SDS011;66874;45.274;5.880;2023-03-31T12:39:37;4.85;;;3.72;;
77705;SDS011;66874;45.274;5.880;2023-03-31T12:45:12;6.63;;;3.80;;
77705;SDS011;66874;45.274;5.880;2023-03-31T12:50:35;9.95;;;4.32;;
77705;SDS011;66874;45.274;5.880;2023-03-31T12:56:07;7.05;;;4.35;;
77705;SDS011;66874;45.274;5.880;2023-03-31T12:58:39;9.90;;;4.22;;
77705;SDS011;66874;45.274;5.880;2023-03-31T13:01:07;9.35;;;4.43;;
77705;SDS011;66874;45.274;5.880;2023-03-31T13:03:44;7.93;;;4.25;;
77705;SDS011;66874;45.274;5.880;2023-03-31T13:06:11;5.85;;;3.33;;
77705;SDS011;66874;45.274;5.880;2023-03-31T13:08:59;9.77;;;3.65;;
77705;SDS011;66874;45.274;5.880;2023-03-31T13:11:47;10.70;;;4.35;;
77705;SDS011;66874;45.274;5.880;2023-03-31T13:14:23;6.75;;;3.42;;
77705;SDS011;66874;45.274;5.880;2023-03-31T13:17:10;4.93;;;3.33;;
77705;SDS011;66874;45.274;5.880;2023-03-31T13:19:48;9.38;;;4.30;;
77705;SDS011;66874;45.274;5.880;2023-03-31T13:27:57;6.35;;;3.72;;
77705;SDS011;66874;45.274;5.880;2023-03-31T13:33:08;6.88;;;3.80;;
77705;SDS011;66874;45.274;5.880;2023-03-31T13:35:38;6.38;;;4.05;;
77705;SDS011;66874;45.274;5.880;2023-03-31T13:38:29;9.13;;;4.38;;
77705;SDS011;66874;45.274;5.880;2023-03-31T13:48:56;7.57;;;3.63;;
77705;SDS011;66874;45.274;5.880;2023-03-31T13:51:49;10.82;;;3.65;;
77705;SDS011;66874;45.274;5.880;2023-03-31T13:56:51;7.05;;;3.17;;
77705;SDS011;66874;45.274;5.880;2023-03-31T14:07:43;10.77;;;4.10;;
77705;SDS011;66874;45.274;5.880;2023-03-31T14:13:17;7.20;;;3.63;;
77705;SDS011;66874;45.274;5.880;2023-03-31T14:15:46;9.30;;;4.18;;
77705;SDS011;66874;45.274;5.880;2023-03-31T14:18:23;9.80;;;3.58;;
77705;SDS011;66874;45.274;5.880;2023-03-31T14:31:25;4.95;;;2.70;;
77705;SDS011;66874;45.274;5.880;2023-03-31T14:39:15;3.35;;;2.17;;
77705;SDS011;66874;45.274;5.880;2023-03-31T14:41:49;8.88;;;2.42;;
77705;SDS011;66874;45.274;5.880;2023-03-31T14:44:17;2.47;;;1.92;;
77705;SDS011;66874;45.274;5.880;2023-03-31T14:46:43;5.03;;;1.92;;
77705;SDS011;66874;45.274;5.880;2023-03-31T14:51:59;3.00;;;1.45;;
77705;SDS011;66874;45.274;5.880;2023-03-31T14:54:27;6.57;;;1.98;;
77705;SDS011;66874;45.274;5.880;2023-03-31T14:56:58;4.95;;;1.50;;
77705;SDS011;66874;45.274;5.880;2023-03-31T14:59:27;6.47;;;1.73;;
77705;SDS011;66874;45.274;5.880;2023-03-31T15:01:58;3.15;;;1.60;;
77705;SDS011;66874;45.274;5.880;2023-03-31T15:04:29;2.75;;;1.42;;
77705;SDS011;66874;45.274;5.880;2023-03-31T15:07:09;2.97;;;1.92;;
77705;SDS011;66874;45.274;5.880;2023-03-31T15:09:35;4.50;;;1.52;;
77705;SDS011;66874;45.274;5.880;2023-03-31T15:12:11;5.60;;;1.70;;
77705;SDS011;66874;45.274;5.880;2023-03-31T15:14:41;3.92;;;1.35;;
77705;SDS011;66874;45.274;5.880;2023-03-31T15:17:24;3.53;;;1.30;;
77705;SDS011;66874;45.274;5.880;2023-03-31T15:19:54;7.45;;;2.22;;
77705;SDS011;66874;45.274;5.880;2023-03-31T15:22:22;4.63;;;1.90;;
77705;SDS011;66874;45.274;5.880;2023-03-31T15:24:49;7.90;;;2.08;;
77705;SDS011;66874;45.274;5.880;2023-03-31T15:29:56;3.92;;;1.40;;
77705;SDS011;66874;45.274;5.880;2023-03-31T15:32:57;2.65;;;1.60;;
77705;SDS011;66874;45.274;5.880;2023-03-31T15:35:37;5.22;;;1.75;;
77705;SDS011;66874;45.274;5.880;2023-03-31T15:38:02;8.02;;;2.28;;
77705;SDS011;66874;45.274;5.880;2023-03-31T15:40:36;6.20;;;2.00;;
77705;SDS011;66874;45.274;5.880;2023-03-31T15:45:37;1.90;;;1.00;;
77705;SDS011;66874;45.274;5.880;2023-03-31T15:48:17;4.00;;;1.70;;
77705;SDS011;66874;45.274;5.880;2023-03-31T15:50:47;3.60;;;1.58;;
77705;SDS011;66874;45.274;5.880;2023-03-31T15:53:30;5.20;;;2.00;;
77705;SDS011;66874;45.274;5.880;2023-03-31T15:58:46;6.25;;;1.55;;
77705;SDS011;66874;45.274;5.880;2023-03-31T16:01:19;3.78;;;1.30;;
77705;SDS011;66874;45.274;5.880;2023-03-31T16:03:44;5.00;;;2.05;;
77705;SDS011;66874;45.274;5.880;2023-03-31T16:09:22;3.97;;;1.70;;
77705;SDS011;66874;45.274;5.880;2023-03-31T16:11:55;6.03;;;1.70;;
77705;SDS011;66874;45.274;5.880;2023-03-31T16:16:58;5.55;;;2.00;;
77705;SDS011;66874;45.274;5.880;2023-03-31T16:19:29;6.07;;;1.73;;
77705;SDS011;66874;45.274;5.880;2023-03-31T16:22:03;11.48;;;1.83;;
77705;SDS011;66874;45.274;5.880;2023-03-31T16:24:32;4.38;;;1.77;;
77705;SDS011;66874;45.274;5.880;2023-03-31T16:26:59;3.33;;;2.15;;
77705;SDS011;66874;45.274;5.880;2023-03-31T16:29:30;5.43;;;1.77;;
77705;SDS011;66874;45.274;5.880;2023-03-31T16:32:05;6.03;;;1.80;;
77705;SDS011;66874;45.274;5.880;2023-03-31T16:37:25;4.88;;;1.27;;
77705;SDS011;66874;45.274;5.880;2023-03-31T16:39:51;3.22;;;1.50;;
77705;SDS011;66874;45.274;5.880;2023-03-31T16:42:17;4.63;;;1.05;;
77705;SDS011;66874;45.274;5.880;2023-03-31T16:44:43;3.70;;;1.10;;
77705;SDS011;66874;45.274;5.880;2023-03-31T16:47:11;6.57;;;1.33;;
77705;SDS011;66874;45.274;5.880;2023-03-31T16:49:37;6.55;;;1.10;;
77705;SDS011;66874;45.274;5.880;2023-03-31T16:52:03;3.30;;;0.80;;
77705;SDS011;66874;45.274;5.880;2023-03-31T16:54:29;4.15;;;1.25;;
77705;SDS011;66874;45.274;5.880;2023-03-31T16:56:55;1.65;;;0.88;;
77705;SDS011;66874;45.274;5.880;2023-03-31T16:59:21;2.28;;;0.73;;
77705;SDS011;66874;45.274;5.880;2023-03-31T17:01:47;1.88;;;0.60;;
77705;SDS011;66874;45.274;5.880;2023-03-31T17:04:12;3.38;;;1.02;;
77705;SDS011;66874;45.274;5.880;2023-03-31T17:06:38;2.97;;;0.80;;
77705;SDS011;66874;45.274;5.880;2023-03-31T17:09:03;2.15;;;1.02;;
77705;SDS011;66874;45.274;5.880;2023-03-31T17:11:29;1.35;;;0.40;;
77705;SDS011;66874;45.274;5.880;2023-03-31T17:13:54;13.15;;;0.88;;
77705;SDS011;66874;45.274;5.880;2023-03-31T17:16:21;3.60;;;0.52;;
77705;SDS011;66874;45.274;5.880;2023-03-31T17:18:46;1.10;;;0.60;;
77705;SDS011;66874;45.274;5.880;2023-03-31T17:21:13;1.52;;;0.55;;
77705;SDS011;66874;45.274;5.880;2023-03-31T17:23:40;1.13;;;0.60;;
77705;SDS011;66874;45.274;5.880;2023-03-31T17:26:07;10.68;;;2.53;;
77705;SDS011;66874;45.274;5.880;2023-03-31T17:28:39;1.58;;;0.30;;
77705;SDS011;66874;45.274;5.880;2023-03-31T17:31:15;1.95;;;0.60;;
77705;SDS011;66874;45.274;5.880;2023-03-31T17:33:45;1.60;;;0.35;;
77705;SDS011;66874;45.274;5.880;2023-03-31T17:36:11;1.58;;;0.63;;
77705;SDS011;66874;45.274;5.880;2023-03-31T17:38:37;1.33;;;0.60;;
77705;SDS011;66874;45.274;5.880;2023-03-31T17:41:06;2.47;;;0.65;;
77705;SDS011;66874;45.274;5.880;2023-03-31T17:43:33;5.18;;;0.93;;
77705;SDS011;66874;45.274;5.880;2023-03-31T17:46:02;0.80;;;0.30;;
77705;SDS011;66874;45.274;5.880;2023-03-31T17:48:33;1.08;;;0.57;;
77705;SDS011;66874;45.274;5.880;2023-03-31T17:51:05;1.58;;;0.50;;
77705;SDS011;66874;45.274;5.880;2023-03-31T17:53:42;1.75;;;0.43;;
77705;SDS011;66874;45.274;5.880;2023-03-31T17:56:09;1.45;;;0.57;;
77705;SDS011;66874;45.274;5.880;2023-03-31T17:58:35;2.78;;;0.93;;
77705;SDS011;66874;45.274;5.880;2023-03-31T18:01:02;1.42;;;0.80;;
77705;SDS011;66874;45.274;5.880;2023-03-31T18:03:29;3.92;;;0.65;;
77705;SDS011;66874;45.274;5.880;2023-03-31T18:05:54;1.42;;;0.40;;
77705;SDS011;66874;45.274;5.880;2023-03-31T18:08:20;3.40;;;0.75;;
77705;SDS011;66874;45.274;5.880;2023-03-31T18:10:46;2.92;;;0.65;;
77705;SDS011;66874;45.274;5.880;2023-03-31T18:13:11;3.67;;;0.73;;
77705;SDS011;66874;45.274;5.880;2023-03-31T18:15:37;1.05;;;0.45;;
77705;SDS011;66874;45.274;5.880;2023-03-31T18:18:03;3.30;;;0.70;;
77705;SDS011;66874;45.274;5.880;2023-03-31T18:20:29;3.77;;;0.93;;
77705;SDS011;66874;45.274;5.880;2023-03-31T18:22:56;1.85;;;0.38;;
77705;SDS011;66874;45.274;5.880;2023-03-31T18:25:21;4.40;;;0.57;;
77705;SDS011;66874;45.274;5.880;2023-03-31T18:27:47;1.00;;;0.32;;
77705;SDS011;66874;45.274;5.880;2023-03-31T18:30:13;4.30;;;0.50;;
77705;SDS011;66874;45.274;5.880;2023-03-31T18:32:38;2.45;;;0.50;;
77705;SDS011;66874;45.274;5.880;2023-03-31T18:35:04;2.45;;;0.45;;
77705;SDS011;66874;45.274;5.880;2023-03-31T18:37:30;2.93;;;0.57;;
77705;SDS011;66874;45.274;5.880;2023-03-31T18:39:57;2.73;;;0.60;;
77705;SDS011;66874;45.274;5.880;2023-03-31T18:42:23;2.45;;;0.80;;
77705;SDS011;66874;45.274;5.880;2023-03-31T18:44:52;6.35;;;1.20;;
77705;SDS011;66874;45.274;5.880;2023-03-31T18:47:18;2.35;;;0.70;;
77705;SDS011;66874;45.274;5.880;2023-03-31T18:49:44;3.20;;;0.68;;
77705;SDS011;66874;45.274;5.880;2023-03-31T18:52:11;1.15;;;0.50;;
77705;SDS011;66874;45.274;5.880;2023-03-31T18:54:36;2.53;;;0.40;;
77705;SDS011;66874;45.274;5.880;2023-03-31T18:57:02;2.10;;;0.40;;
77705;SDS011;66874;45.274;5.880;2023-03-31T18:59:27;1.35;;;0.40;;
77705;SDS011;66874;45.274;5.880;2023-03-31T19:01:53;2.38;;;0.55;;
77705;SDS011;66874;45.274;5.880;2023-03-31T19:04:18;4.22;;;0.57;;
77705;SDS011;66874;45.274;5.880;2023-03-31T19:06:44;1.50;;;0.50;;
77705;SDS011;66874;45.274;5.880;2023-03-31T19:09:10;2.10;;;0.40;;
77705;SDS011;66874;45.274;5.880;2023-03-31T19:11:35;3.85;;;0.90;;
77705;SDS011;66874;45.274;5.880;2023-03-31T19:14:02;3.55;;;0.63;;
77705;SDS011;66874;45.274;5.880;2023-03-31T19:16:27;8.70;;;2.20;;
77705;SDS011;66874;45.274;5.880;2023-03-31T19:18:53;1.98;;;0.88;;
77705;SDS011;66874;45.274;5.880;2023-03-31T19:21:19;4.75;;;2.08;;
77705;SDS011;66874;45.274;5.880;2023-03-31T19:23:44;3.88;;;2.03;;
77705;SDS011;66874;45.274;5.880;2023-03-31T19:26:12;3.72;;;1.80;;
77705;SDS011;66874;45.274;5.880;2023-03-31T19:28:39;6.82;;;2.58;;
77705;SDS011;66874;45.274;5.880;2023-03-31T19:31:05;2.78;;;1.45;;
77705;SDS011;66874;45.274;5.880;2023-03-31T19:33:31;5.10;;;1.92;;
77705;SDS011;66874;45.274;5.880;2023-03-31T19:35:56;3.20;;;1.38;;
77705;SDS011;66874;45.274;5.880;2023-03-31T19:38:23;8.00;;;1.55;;
77705;SDS011;66874;45.274;5.880;2023-03-31T19:43:20;1.20;;;0.80;;
77705;SDS011;66874;45.274;5.880;2023-03-31T19:45:47;5.30;;;1.77;;
77705;SDS011;66874;45.274;5.880;2023-03-31T19:48:14;1.13;;;0.90;;
77705;SDS011;66874;45.274;5.880;2023-03-31T19:50:44;2.08;;;0.88;;
77705;SDS011;66874;45.274;5.880;2023-03-31T19:53:11;3.50;;;1.15;;
77705;SDS011;66874;45.274;5.880;2023-03-31T19:55:37;1.48;;;0.47;;
77705;SDS011;66874;45.274;5.880;2023-03-31T20:00:30;156.93;;;55.38;;
77705;SDS011;66874;45.274;5.880;2023-03-31T20:02:56;266.10;;;102.30;;
77705;SDS011;66874;45.274;5.880;2023-03-31T20:05:21;284.27;;;117.90;;
77705;SDS011;66874;45.274;5.880;2023-03-31T20:07:47;15.15;;;7.50;;
77705;SDS011;66874;45.274;5.880;2023-03-31T20:10:12;12.55;;;3.15;;
77705;SDS011;66874;45.274;5.880;2023-03-31T20:12:38;5.95;;;2.03;;
77705;SDS011;66874;45.274;5.880;2023-03-31T20:15:04;3.92;;;1.83;;
77705;SDS011;66874;45.274;5.880;2023-03-31T20:17:29;4.30;;;2.47;;
77705;SDS011;66874;45.274;5.880;2023-03-31T20:19:55;8.27;;;3.85;;
77705;SDS011;66874;45.274;5.880;2023-03-31T20:22:21;5.85;;;2.38;;
77705;SDS011;66874;45.274;5.880;2023-03-31T20:24:46;4.68;;;2.20;;
77705;SDS011;66874;45.274;5.880;2023-03-31T20:27:12;14.70;;;7.20;;
77705;SDS011;66874;45.274;5.880;2023-03-31T20:29:37;10.65;;;5.18;;
77705;SDS011;66874;45.274;5.880;2023-03-31T20:32:02;2.50;;;1.50;;
77705;SDS011;66874;45.274;5.880;2023-03-31T20:34:29;7.82;;;3.28;;
77705;SDS011;66874;45.274;5.880;2023-03-31T20:36:55;9.02;;;4.15;;
77705;SDS011;66874;45.274;5.880;2023-03-31T20:39:21;32.97;;;17.90;;
77705;SDS011;66874;45.274;5.880;2023-03-31T20:41:46;13.05;;;7.95;;
77705;SDS011;66874;45.274;5.880;2023-03-31T20:44:13;7.30;;;3.40;;
77705;SDS011;66874;45.274;5.880;2023-03-31T20:46:39;4.82;;;2.03;;
77705;SDS011;66874;45.274;5.880;2023-03-31T20:49:05;1.93;;;1.13;;
77705;SDS011;66874;45.274;5.880;2023-03-31T20:51:32;3.08;;;1.10;;
77705;SDS011;66874;45.274;5.880;2023-03-31T20:53:59;3.35;;;1.80;;
77705;SDS011;66874;45.274;5.880;2023-03-31T20:58:52;7.07;;;3.70;;
77705;SDS011;66874;45.274;5.880;2023-03-31T21:01:19;8.83;;;2.50;;
77705;SDS011;66874;45.274;5.880;2023-03-31T21:03:45;8.77;;;3.70;;
77705;SDS011;66874;45.274;5.880;2023-03-31T21:06:11;5.13;;;2.83;;
77705;SDS011;66874;45.274;5.880;2023-03-31T21:08:39;3.08;;;1.67;;
77705;SDS011;66874;45.274;5.880;2023-03-31T21:11:06;6.25;;;1.88;;
77705;SDS011;66874;45.274;5.880;2023-03-31T21:13:32;6.40;;;3.30;;
77705;SDS011;66874;45.274;5.880;2023-03-31T21:15:58;7.90;;;2.90;;
77705;SDS011;66874;45.274;5.880;2023-03-31T21:18:25;9.80;;;2.63;;
77705;SDS011;66874;45.274;5.880;2023-03-31T21:20:57;5.70;;;1.85;;
77705;SDS011;66874;45.274;5.880;2023-03-31T21:23:25;6.53;;;2.63;;
77705;SDS011;66874;45.274;5.880;2023-03-31T21:25:52;3.60;;;1.27;;
77705;SDS011;66874;45.274;5.880;2023-03-31T21:28:20;3.10;;;1.20;;
77705;SDS011;66874;45.274;5.880;2023-03-31T21:30:53;4.60;;;2.10;;
77705;SDS011;66874;45.274;5.880;2023-03-31T21:33:25;4.70;;;2.90;;
77705;SDS011;66874;45.274;5.880;2023-03-31T21:35:51;3.70;;;1.85;;
77705;SDS011;66874;45.274;5.880;2023-03-31T21:38:17;4.00;;;1.65;;
77705;SDS011;66874;45.274;5.880;2023-03-31T21:40:44;2.67;;;1.17;;
77705;SDS011;66874;45.274;5.880;2023-03-31T21:43:09;2.42;;;1.25;;
77705;SDS011;66874;45.274;5.880;2023-03-31T21:45:35;26.48;;;9.20;;
77705;SDS011;66874;45.274;5.880;2023-03-31T21:48:01;41.78;;;15.20;;
77705;SDS011;66874;45.274;5.880;2023-03-31T21:50:28;28.58;;;13.40;;
77705;SDS011;66874;45.274;5.880;2023-03-31T21:52:53;5.03;;;2.80;;
77705;SDS011;66874;45.274;5.880;2023-03-31T21:55:19;5.47;;;1.83;;
77705;SDS011;66874;45.274;5.880;2023-03-31T21:57:44;2.63;;;1.10;;
77705;SDS011;66874;45.274;5.880;2023-03-31T22:00:09;6.68;;;1.67;;
77705;SDS011;66874;45.274;5.880;2023-03-31T22:02:37;3.88;;;2.08;;
77705;SDS011;66874;45.274;5.880;2023-03-31T22:05:03;5.03;;;1.83;;
77705;SDS011;66874;45.274;5.880;2023-03-31T22:07:30;4.38;;;1.38;;
77705;SDS011;66874;45.274;5.880;2023-03-31T22:09:55;5.47;;;1.80;;
77705;SDS011;66874;45.274;5.880;2023-03-31T22:12:21;8.05;;;3.55;;
77705;SDS011;66874;45.274;5.880;2023-03-31T22:14:46;8.82;;;3.22;;
77705;SDS011;66874;45.274;5.880;2023-03-31T22:17:12;7.28;;;3.17;;
77705;SDS011;66874;45.274;5.880;2023-03-31T22:19:38;7.47;;;2.63;;
77705;SDS011;66874;45.274;5.880;2023-03-31T22:22:04;7.88;;;2.15;;
77705;SDS011;66874;45.274;5.880;2023-03-31T22:24:29;3.72;;;1.40;;
77705;SDS011;66874;45.274;5.880;2023-03-31T22:26:55;4.35;;;1.92;;
77705;SDS011;66874;45.274;5.880;2023-03-31T22:29:20;5.78;;;2.60;;
77705;SDS011;66874;45.274;5.880;2023-03-31T22:31:46;9.95;;;2.97;;